createdAt,value
2019-01-04T00:01:31.165Z,8.00
2019-01-04T00:04:02.651Z,7.00
2019-01-04T00:06:31.948Z,9.00
2019-01-04T00:09:01.374Z,12.00
2019-01-04T00:11:30.686Z,13.20
2019-01-04T00:14:18.123Z,12.00
2019-01-04T00:16:47.612Z,15.00
2019-01-04T00:19:16.882Z,15.40
2019-01-04T00:22:04.386Z,8.20
2019-01-04T00:24:33.964Z,13.60
2019-01-04T00:27:03.441Z,18.00
2019-01-04T00:29:50.419Z,10.60
2019-01-04T00:32:20.324Z,14.40
2019-01-04T00:34:49.794Z,16.60
2019-01-04T00:37:19.252Z,18.40
2019-01-04T00:39:49.078Z,15.60
2019-01-04T00:42:18.465Z,16.80
2019-01-04T00:44:47.960Z,18.40
2019-01-04T00:47:17.573Z,14.20
2019-01-04T00:49:47.034Z,17.60
2019-01-04T00:52:16.981Z,11.60
2019-01-04T00:54:46.667Z,8.40
2019-01-04T00:57:37.067Z,11.20
2019-01-04T01:00:42.194Z,14.20
2019-01-04T01:03:47.336Z,10.80
2019-01-04T01:06:43.972Z,7.00
2019-01-04T01:09:36.357Z,9.60
2019-01-04T01:12:30.667Z,10.80
2019-01-04T01:15:28.687Z,9.20
2019-01-04T01:18:22.523Z,12.20
2019-01-04T01:21:16.389Z,12.80
2019-01-04T01:24:21.262Z,13.00
2019-01-04T01:27:29.100Z,10.00
2019-01-04T01:30:34.089Z,15.00
2019-01-04T01:33:20.322Z,7.80
2019-01-04T01:36:14.263Z,14.40
2019-01-04T01:39:22.205Z,9.00
2019-01-04T01:42:15.657Z,10.00
2019-01-04T01:45:21.152Z,8.60
2019-01-04T01:47:57.250Z,14.60
2019-01-04T01:50:57.543Z,12.00
2019-01-04T01:53:39.847Z,13.20
2019-01-04T01:56:09.216Z,15.40
2019-01-04T01:58:39.096Z,15.60
2019-01-04T02:01:08.774Z,9.80
2019-01-04T02:03:38.517Z,12.60
2019-01-04T02:06:08.024Z,13.40
2019-01-04T02:08:37.509Z,12.00
2019-01-04T02:11:06.890Z,9.60
2019-01-04T02:13:36.390Z,10.40
2019-01-04T02:16:05.783Z,15.60
2019-01-04T02:18:35.696Z,17.40
2019-01-04T02:21:05.096Z,16.20
2019-01-04T02:23:34.559Z,12.60
2019-01-04T02:26:03.949Z,9.40
2019-01-04T02:28:33.508Z,16.80
2019-01-04T02:31:03.446Z,14.40
2019-01-04T02:33:32.968Z,9.00
2019-01-04T02:36:02.457Z,15.20
2019-01-04T02:38:31.837Z,18.80
2019-01-04T02:41:01.166Z,20.20
2019-01-04T02:43:30.888Z,17.00
2019-01-04T02:46:00.660Z,13.40
2019-01-04T02:48:30.200Z,13.40
2019-01-04T02:50:59.593Z,14.40
2019-01-04T02:53:29.191Z,16.80
2019-01-04T02:55:58.796Z,15.20
2019-01-04T02:58:28.288Z,15.40
2019-01-04T03:01:15.422Z,15.40
2019-01-04T03:03:45.395Z,16.60
2019-01-04T03:06:14.683Z,12.60
2019-01-04T03:08:44.080Z,12.40
2019-01-04T03:11:13.582Z,15.00
2019-01-04T03:13:42.851Z,22.00
2019-01-04T03:16:12.145Z,17.40
2019-01-04T03:18:41.529Z,20.40
2019-01-04T03:21:11.117Z,18.40
2019-01-04T03:23:40.577Z,22.40
2019-01-04T03:26:10.663Z,18.80
2019-01-04T03:28:40.028Z,18.80
2019-01-04T03:33:56.752Z,21.60
2019-01-04T03:36:26.571Z,12.20
2019-01-04T03:38:56.047Z,15.20
2019-01-04T03:41:25.333Z,12.00
2019-01-04T03:43:54.865Z,19.40
2019-01-04T03:46:24.299Z,17.80
2019-01-04T03:48:54.850Z,11.20
2019-01-04T03:51:24.417Z,16.00
2019-01-04T03:53:53.740Z,11.80
2019-01-04T03:56:48.136Z,6.40
2019-01-04T03:59:17.667Z,11.40
2019-01-04T04:01:47.176Z,11.60
2019-01-04T04:04:16.603Z,18.40
2019-01-04T04:06:45.992Z,9.80
2019-01-04T04:09:15.404Z,16.20
2019-01-04T04:11:45.218Z,18.00
2019-01-04T04:14:14.641Z,10.40
2019-01-04T04:16:44.126Z,21.00
2019-01-04T04:19:13.627Z,16.60
2019-01-04T04:21:43.115Z,13.80
2019-01-04T04:24:13.064Z,17.20
2019-01-04T04:26:42.543Z,16.00
2019-01-04T04:29:11.998Z,13.80
2019-01-04T04:31:41.393Z,15.60
2019-01-04T04:34:18.791Z,15.80
2019-01-04T04:36:53.211Z,14.80
2019-01-04T04:39:22.696Z,14.00
2019-01-04T04:41:52.006Z,15.60
2019-01-04T04:44:21.878Z,13.20
2019-01-04T04:46:51.476Z,16.20
2019-01-04T04:49:21.165Z,12.80
2019-01-04T04:51:50.679Z,15.00
2019-01-04T04:54:20.275Z,15.40
2019-01-04T04:56:51.170Z,18.20
2019-01-04T04:59:20.687Z,13.80
2019-01-04T05:01:50.180Z,17.60
2019-01-04T05:04:20.182Z,22.00
2019-01-04T05:06:49.785Z,19.80
2019-01-04T05:09:19.468Z,26.20
2019-01-04T05:11:48.910Z,12.40
2019-01-04T05:14:18.455Z,17.40
2019-01-04T05:16:47.987Z,19.60
2019-01-04T05:19:17.876Z,16.20
2019-01-04T05:21:47.471Z,22.60
2019-01-04T05:24:17.078Z,11.40
2019-01-04T05:26:46.897Z,12.80
2019-01-04T05:29:16.391Z,17.20
2019-01-04T05:31:45.870Z,21.00
2019-01-04T05:34:15.897Z,21.40
2019-01-04T05:36:45.399Z,14.80
2019-01-04T05:39:14.706Z,19.40
2019-01-04T05:41:44.628Z,19.00
2019-01-04T05:44:14.121Z,16.80
2019-01-04T05:46:43.493Z,26.20
2019-01-04T05:49:13.161Z,25.40
2019-01-04T05:51:42.841Z,19.80
2019-01-04T05:54:12.201Z,22.00
2019-01-04T05:56:43.019Z,21.80
2019-01-04T05:59:12.553Z,23.20
2019-01-04T06:01:41.957Z,20.60
2019-01-04T06:04:11.241Z,28.40
2019-01-04T06:06:40.658Z,22.40
2019-01-04T06:09:10.444Z,23.00
2019-01-04T06:11:39.718Z,19.00
2019-01-04T06:14:09.220Z,23.00
2019-01-04T06:16:38.701Z,23.60
2019-01-04T06:19:08.188Z,22.00
2019-01-04T06:21:37.769Z,32.40
2019-01-04T06:24:07.138Z,31.00
2019-01-04T06:26:39.625Z,22.80
2019-01-04T06:29:08.124Z,28.00
2019-01-04T06:34:26.503Z,16.80
2019-01-04T06:36:56.508Z,30.60
2019-01-04T06:39:26.571Z,25.00
2019-01-04T06:41:56.066Z,26.60
2019-01-04T06:44:25.565Z,25.40
2019-01-04T06:47:16.658Z,31.20
2019-01-04T06:49:46.917Z,30.80
2019-01-04T06:52:16.730Z,25.80
2019-01-04T06:55:24.792Z,25.40
2019-01-04T06:57:54.276Z,24.80
2019-01-04T07:00:24.241Z,30.60
2019-01-04T07:02:53.644Z,28.80
2019-01-04T07:05:23.165Z,31.80
2019-01-04T07:07:52.870Z,29.60
2019-01-04T07:10:22.345Z,24.60
2019-01-04T07:12:51.837Z,36.20
2019-01-04T07:15:21.359Z,30.20
2019-01-04T07:17:50.779Z,22.20
2019-01-04T07:20:20.623Z,27.80
2019-01-04T07:22:50.109Z,28.00
2019-01-04T07:25:19.806Z,30.20
2019-01-04T07:27:49.278Z,26.40
2019-01-04T07:30:18.662Z,25.40
2019-01-04T07:32:48.095Z,26.40
2019-01-04T07:35:17.600Z,24.00
2019-01-04T07:37:47.065Z,19.20
2019-01-04T07:40:34.781Z,24.80
2019-01-04T07:43:04.210Z,19.60
2019-01-04T07:45:33.748Z,19.20
2019-01-04T07:48:03.469Z,17.00
2019-01-04T07:50:32.883Z,18.60
2019-01-04T07:53:02.819Z,19.80
2019-01-04T07:55:49.945Z,15.20
2019-01-04T07:58:19.402Z,20.40
2019-01-04T08:00:50.789Z,11.20
2019-01-04T08:03:23.848Z,24.00
2019-01-04T08:05:56.107Z,18.20
2019-01-04T08:08:25.747Z,18.40
2019-01-04T08:11:12.975Z,24.40
2019-01-04T08:13:42.361Z,26.20
2019-01-04T08:16:11.812Z,21.80
2019-01-04T08:18:43.960Z,19.60
2019-01-04T08:21:13.402Z,28.60
2019-01-04T08:23:43.568Z,17.60
2019-01-04T08:26:13.005Z,22.00
2019-01-04T08:28:44.638Z,24.20
2019-01-04T08:31:14.119Z,26.80
2019-01-04T08:33:43.451Z,23.40
2019-01-04T08:36:15.179Z,24.20
2019-01-04T08:38:44.623Z,20.20
2019-01-04T08:41:15.637Z,19.80
2019-01-04T08:43:44.972Z,23.40
2019-01-04T08:46:14.709Z,22.40
2019-01-04T08:48:44.255Z,24.40
2019-01-04T08:51:31.692Z,21.40
2019-01-04T08:54:01.226Z,17.60
2019-01-04T08:56:50.814Z,17.60
2019-01-04T08:59:23.015Z,21.80
2019-01-04T09:01:53.529Z,15.00
2019-01-04T09:04:23.601Z,18.20
2019-01-04T09:06:53.205Z,16.20
2019-01-04T09:09:24.222Z,10.40
2019-01-04T09:11:53.825Z,13.60
2019-01-04T09:14:25.388Z,10.00
2019-01-04T09:16:54.902Z,14.20
2019-01-04T09:19:24.441Z,10.60
2019-01-04T09:22:11.776Z,9.80
2019-01-04T09:24:41.265Z,13.00
2019-01-04T09:27:10.543Z,14.60
2019-01-04T09:29:40.129Z,13.40
2019-01-04T09:32:10.872Z,11.20
2019-01-04T09:34:40.620Z,16.80
2019-01-04T09:37:10.018Z,12.00
2019-01-04T09:39:39.957Z,10.80
2019-01-04T09:42:13.136Z,16.20
2019-01-04T09:44:43.728Z,9.60
2019-01-04T09:47:14.245Z,15.20
2019-01-04T09:49:43.826Z,14.60
2019-01-04T09:52:13.671Z,18.80
2019-01-04T09:54:43.111Z,21.20
2019-01-04T09:57:12.450Z,15.00
2019-01-04T09:59:42.416Z,17.60
2019-01-04T10:02:11.978Z,17.80
2019-01-04T10:04:41.623Z,21.00
2019-01-04T10:07:11.015Z,20.60
2019-01-04T10:09:40.767Z,19.20
2019-01-04T10:12:10.727Z,19.40
2019-01-04T10:14:40.089Z,19.20
2019-01-04T10:17:09.639Z,21.00
2019-01-04T10:19:39.417Z,10.20
2019-01-04T10:22:08.818Z,9.60
2019-01-04T10:24:38.417Z,20.40
2019-01-04T10:27:07.991Z,22.20
2019-01-04T10:29:37.364Z,22.00
2019-01-04T10:32:24.364Z,16.00
2019-01-04T10:34:54.137Z,11.60
2019-01-04T10:37:25.036Z,21.00
2019-01-04T10:39:54.625Z,15.80
2019-01-04T10:42:24.181Z,19.60
2019-01-04T10:44:53.925Z,24.60
2019-01-04T10:47:23.443Z,20.60
2019-01-04T10:49:53.135Z,27.40
2019-01-04T10:52:22.602Z,15.20
2019-01-04T10:54:52.111Z,19.40
2019-01-04T10:57:21.499Z,21.40
2019-01-04T10:59:51.384Z,15.80
2019-01-04T11:02:20.811Z,17.40
2019-01-04T11:04:50.109Z,13.00
2019-01-04T11:07:19.629Z,13.60
2019-01-04T11:09:48.994Z,19.00
2019-01-04T11:12:18.988Z,16.00
2019-01-04T11:14:48.547Z,16.40
2019-01-04T11:17:35.285Z,25.60
2019-01-04T11:20:06.205Z,18.00
2019-01-04T11:22:54.731Z,22.00
2019-01-04T11:25:45.899Z,19.00
2019-01-04T11:28:22.938Z,16.80
2019-01-04T11:31:01.967Z,19.40
2019-01-04T11:33:44.483Z,27.00
2019-01-04T11:36:34.117Z,18.40
2019-01-04T11:39:12.918Z,18.20
2019-01-04T11:42:05.019Z,25.60
2019-01-04T11:45:04.099Z,22.60
2019-01-04T11:48:11.695Z,26.40
2019-01-04T11:51:08.924Z,19.40
2019-01-04T11:53:38.467Z,29.20
2019-01-04T11:56:07.847Z,15.40
2019-01-04T11:58:37.709Z,21.60
2019-01-04T12:01:07.241Z,22.20
2019-01-04T12:03:36.818Z,24.80
2019-01-04T12:06:06.320Z,13.80
2019-01-04T12:08:35.843Z,32.00
2019-01-04T12:11:05.281Z,13.80
2019-01-04T12:13:39.900Z,14.60
2019-01-04T12:16:09.566Z,16.20
2019-01-04T12:18:39.015Z,20.80
2019-01-04T12:21:08.337Z,14.20
2019-01-04T12:23:37.702Z,15.60
2019-01-04T12:26:07.639Z,11.80
2019-01-04T12:31:24.368Z,17.20
2019-01-04T12:33:54.664Z,12.60
2019-01-04T12:36:24.158Z,13.40
2019-01-04T12:38:53.711Z,15.20
2019-01-04T12:41:23.246Z,12.20
2019-01-04T12:43:53.222Z,7.80
2019-01-04T12:46:40.114Z,11.60
2019-01-04T12:49:09.447Z,8.20
2019-01-04T12:51:39.044Z,19.80
2019-01-04T12:54:08.570Z,17.80
2019-01-04T12:56:40.032Z,12.20
2019-01-04T12:59:09.318Z,15.80
2019-01-04T13:01:40.435Z,10.20
2019-01-04T13:04:10.317Z,15.80
2019-01-04T13:06:40.130Z,17.20
2019-01-04T13:09:09.629Z,15.80
2019-01-04T13:11:39.177Z,17.20
2019-01-04T13:14:08.959Z,11.40
2019-01-04T13:16:38.466Z,12.20
2019-01-04T13:19:07.908Z,16.40
2019-01-04T13:21:37.965Z,15.80
2019-01-04T13:24:08.421Z,10.40
2019-01-04T13:26:37.891Z,15.40
2019-01-04T13:29:07.365Z,15.60
2019-01-04T13:34:24.006Z,8.60
2019-01-04T13:36:53.513Z,9.60
2019-01-04T13:39:22.896Z,13.40
2019-01-04T13:41:52.682Z,16.80
2019-01-04T13:44:21.970Z,9.60
2019-01-04T13:46:51.322Z,8.80
2019-01-04T13:49:20.623Z,12.20
2019-01-04T13:51:50.070Z,9.00
2019-01-04T13:54:19.523Z,16.00
2019-01-04T13:56:49.357Z,12.20
2019-01-04T13:59:18.733Z,7.60
2019-01-04T14:01:48.315Z,3.20
2019-01-04T14:04:17.973Z,8.20
2019-01-04T14:06:47.433Z,15.20
2019-01-04T14:09:16.922Z,10.80
2019-01-04T14:11:46.468Z,9.80
2019-01-04T14:17:04.113Z,14.00
2019-01-04T14:19:33.512Z,13.20
2019-01-04T14:22:02.805Z,15.40
2019-01-04T14:24:32.260Z,12.60
2019-01-04T14:27:02.226Z,12.20
2019-01-04T14:29:31.556Z,13.40
2019-01-04T14:32:00.944Z,9.80
2019-01-04T14:34:30.473Z,13.80
2019-01-04T14:36:59.970Z,18.00
2019-01-04T14:39:29.461Z,6.20
2019-01-04T14:42:00.608Z,12.00
2019-01-04T14:44:30.130Z,16.20
2019-01-04T14:46:59.683Z,17.20
2019-01-04T14:49:32.875Z,21.40
2019-01-04T14:52:02.179Z,18.80
2019-01-04T14:54:32.800Z,16.40
2019-01-04T14:57:02.305Z,19.00
2019-01-04T14:59:31.723Z,17.60
2019-01-04T15:02:01.657Z,16.20
2019-01-04T15:04:31.079Z,18.00
2019-01-04T15:07:01.617Z,19.00
2019-01-04T15:09:31.544Z,12.20
2019-01-04T15:12:00.974Z,22.80
2019-01-04T15:14:30.373Z,15.00
2019-01-04T15:16:59.696Z,17.80
2019-01-04T15:19:30.743Z,18.60
2019-01-04T15:22:01.273Z,16.20
2019-01-04T15:24:31.907Z,15.60
2019-01-04T15:29:48.563Z,11.00
2019-01-04T15:32:18.246Z,12.60
2019-01-04T15:34:48.873Z,16.40
2019-01-04T15:37:19.518Z,21.60
2019-01-04T15:39:49.453Z,19.80
2019-01-04T15:42:18.982Z,15.00
2019-01-04T15:44:48.480Z,9.40
2019-01-04T15:47:19.987Z,16.40
2019-01-04T15:49:49.741Z,12.40
2019-01-04T15:52:19.213Z,14.20
2019-01-04T15:54:48.719Z,17.80
2019-01-04T15:57:18.629Z,13.00
2019-01-04T15:59:47.903Z,11.80
2019-01-04T16:02:17.503Z,14.60
2019-01-04T16:04:46.863Z,12.00
2019-01-04T16:07:19.773Z,15.20
2019-01-04T16:09:50.287Z,18.00
2019-01-04T16:12:20.806Z,17.20
2019-01-04T16:15:07.517Z,14.60
2019-01-04T16:17:37.485Z,16.20
2019-01-04T16:20:10.229Z,13.20
2019-01-04T16:22:39.658Z,18.80
2019-01-04T16:25:10.267Z,19.40
2019-01-04T16:27:40.347Z,15.00
2019-01-04T16:30:27.522Z,18.20
2019-01-04T16:32:57.138Z,27.20
2019-01-04T16:35:26.605Z,22.00
2019-01-04T16:37:56.414Z,15.40
2019-01-04T16:40:25.804Z,20.60
2019-01-04T16:42:55.156Z,20.20
2019-01-04T16:45:24.518Z,18.80
2019-01-04T16:47:56.011Z,23.20
2019-01-04T16:50:25.875Z,16.00
2019-01-04T16:52:59.481Z,17.20
2019-01-04T16:55:28.635Z,23.20
2019-01-04T16:57:58.053Z,16.80
2019-01-04T17:00:27.952Z,21.00
2019-01-04T17:02:57.394Z,15.80
2019-01-04T17:05:27.048Z,17.20
2019-01-04T17:07:56.988Z,8.00
2019-01-04T17:10:26.499Z,25.80
2019-01-04T17:12:56.019Z,23.20
2019-01-04T17:15:30.167Z,23.00
2019-01-04T17:18:03.969Z,29.20
2019-01-04T17:20:33.744Z,12.60
2019-01-04T17:23:03.166Z,30.80
2019-01-04T17:25:32.593Z,26.80
2019-01-04T17:28:02.015Z,29.20
2019-01-04T17:30:31.992Z,23.20
2019-01-04T17:33:01.376Z,43.00
2019-01-04T17:35:30.907Z,24.60
2019-01-04T17:38:00.324Z,26.80
2019-01-04T17:40:29.855Z,27.80
2019-01-04T17:43:00.782Z,14.40
2019-01-04T17:45:30.195Z,15.80
2019-01-04T17:47:59.588Z,34.40
2019-01-04T17:50:46.811Z,23.60
2019-01-04T17:53:16.218Z,35.00
2019-01-04T17:55:46.223Z,30.80
2019-01-04T17:58:15.717Z,35.40
2019-01-04T18:00:45.167Z,33.20
2019-01-04T18:03:14.681Z,28.20
2019-01-04T18:05:44.144Z,24.40
2019-01-04T18:11:02.403Z,28.40
2019-01-04T18:13:31.835Z,30.00
2019-01-04T18:16:01.665Z,27.40
2019-01-04T18:18:31.380Z,25.00
2019-01-04T18:21:03.038Z,26.60
2019-01-04T18:23:32.528Z,15.60
2019-01-04T18:26:01.960Z,18.80
2019-01-04T18:28:31.511Z,35.20
2019-01-04T18:31:01.054Z,23.80
2019-01-04T18:33:30.528Z,35.60
2019-01-04T18:36:18.199Z,37.00
2019-01-04T18:38:49.793Z,30.33
2019-01-04T18:41:24.073Z,24.80
2019-01-04T18:43:54.018Z,32.20
2019-01-04T18:46:27.074Z,28.40
2019-01-04T18:49:13.844Z,26.60
2019-01-04T18:51:43.328Z,23.20
2019-01-04T18:54:12.925Z,34.00
2019-01-04T18:56:42.391Z,33.60
2019-01-04T18:59:12.536Z,28.60
2019-01-04T19:01:42.221Z,23.60
2019-01-04T19:04:11.748Z,31.20
2019-01-04T19:07:00.250Z,36.40
2019-01-04T19:09:29.642Z,32.00
2019-01-04T19:11:58.956Z,32.40
2019-01-04T19:14:28.236Z,36.20
2019-01-04T19:16:57.638Z,31.60
2019-01-04T19:19:27.419Z,25.00
2019-01-04T19:21:56.889Z,27.20
2019-01-04T19:24:26.305Z,30.00
2019-01-04T19:26:57.208Z,17.60
2019-01-04T19:29:26.526Z,26.00
2019-01-04T19:31:55.903Z,22.80
2019-01-04T19:34:25.273Z,23.40
2019-01-04T19:36:55.129Z,22.40
2019-01-04T19:39:24.506Z,28.00
2019-01-04T19:41:53.866Z,19.80
2019-01-04T19:44:23.606Z,24.20
2019-01-04T19:47:10.980Z,23.20
2019-01-04T19:49:40.577Z,21.80
2019-01-04T19:52:10.084Z,17.40
2019-01-04T19:54:39.473Z,27.00
2019-01-04T19:57:09.449Z,15.20
2019-01-04T19:59:38.958Z,23.40
2019-01-04T20:02:08.394Z,22.20
2019-01-04T20:04:38.685Z,24.40
2019-01-04T20:08:00.820Z,15.20
2019-01-04T20:11:26.379Z,19.00
2019-01-04T20:14:52.798Z,15.80
2019-01-04T20:17:36.430Z,22.80
2019-01-04T20:20:24.862Z,18.00
2019-01-04T20:23:13.745Z,22.20
2019-01-04T20:26:02.163Z,24.80
2019-01-04T20:28:50.352Z,19.20
2019-01-04T20:31:38.677Z,25.60
2019-01-04T20:34:27.270Z,19.60
2019-01-04T20:37:15.752Z,19.80
2019-01-04T20:40:04.232Z,25.80
2019-01-04T20:42:49.053Z,11.20
2019-01-04T20:45:37.951Z,19.80
2019-01-04T20:48:19.531Z,17.00
2019-01-04T20:51:08.492Z,22.60
2019-01-04T20:53:56.848Z,21.40
2019-01-04T20:56:45.671Z,19.20
2019-01-04T20:59:34.139Z,15.60
2019-01-04T21:02:22.709Z,10.00
2019-01-04T21:05:08.431Z,18.40
2019-01-04T21:08:09.456Z,19.40
2019-01-04T21:11:08.181Z,15.60
2019-01-04T21:14:03.852Z,15.80
2019-01-04T21:16:52.132Z,15.00
2019-01-04T21:19:40.624Z,15.00
2019-01-04T21:22:28.896Z,14.20
2019-01-04T21:25:17.269Z,12.20
2019-01-04T21:28:00.090Z,15.00
2019-01-04T21:30:51.073Z,11.00
2019-01-04T21:33:39.384Z,15.40
2019-01-04T21:36:46.127Z,11.20
2019-01-04T21:39:34.697Z,15.20
2019-01-04T21:42:44.246Z,18.00
2019-01-04T21:45:35.345Z,22.80
2019-01-04T21:48:23.471Z,12.20
2019-01-04T21:51:12.164Z,16.60
2019-01-04T21:54:00.865Z,12.40
2019-01-04T21:56:49.509Z,21.00
2019-01-04T21:59:37.119Z,10.40
2019-01-04T22:02:25.403Z,13.40
2019-01-04T22:05:14.073Z,12.20
2019-01-04T22:08:02.463Z,16.00
2019-01-04T22:11:09.306Z,5.80
2019-01-04T22:13:57.486Z,13.20
2019-01-04T22:16:46.208Z,15.60
2019-01-04T22:19:27.530Z,13.60
2019-01-04T22:22:14.503Z,9.20
2019-01-04T22:25:16.715Z,11.60
2019-01-04T22:28:05.478Z,7.60
2019-01-04T22:30:44.160Z,12.20
2019-01-04T22:33:31.841Z,6.80
2019-01-04T22:36:17.273Z,11.80
2019-01-04T22:39:06.015Z,9.80
2019-01-04T22:41:54.571Z,12.60
2019-01-04T22:44:36.974Z,11.60
2019-01-04T22:47:25.147Z,13.00
2019-01-04T22:50:14.101Z,14.60
2019-01-04T22:53:02.577Z,21.40
2019-01-04T22:55:52.199Z,13.60
2019-01-04T22:58:36.446Z,11.40
2019-01-04T23:01:23.718Z,19.40
2019-01-04T23:04:12.467Z,12.00
2019-01-04T23:06:59.852Z,15.00
2019-01-04T23:09:41.229Z,12.40
2019-01-04T23:12:29.588Z,11.00
2019-01-04T23:15:20.020Z,13.80
2019-01-04T23:18:08.520Z,10.20
2019-01-04T23:20:56.977Z,17.80
2019-01-04T23:23:46.069Z,24.20
2019-01-04T23:26:34.370Z,16.20
2019-01-04T23:29:22.186Z,9.60
2019-01-04T23:35:17.503Z,14.40
2019-01-04T23:38:01.192Z,12.20
2019-01-04T23:40:43.616Z,23.80
2019-01-04T23:43:32.065Z,11.20
2019-01-04T23:46:20.678Z,13.80
2019-01-04T23:49:08.922Z,22.40
2019-01-04T23:51:57.778Z,13.80
2019-01-04T23:54:46.138Z,34.00
2019-01-04T23:57:34.978Z,18.60
